Omskiy-141 — UGZK — position and weather

sailwx.info

Track history (hours):
 
Tides and Currents Weather Stations Pressure Air Temp Water Temp Dewpoint Dewpoint Depression Visibility Wind Speed Wind Dir Waves Ship Positions

Omskiy-141

Last reported at 2018-Feb-19 21:05 UTC. Time now 2018-Feb-23 16:59 UTC.
Position N 57°15' E 016°46'.

Length 108 m; draft 2.6 m.

Type: Cargo ship. MMSI: 273310600.

Date/timePositionNaut miles runAvg speedWind from/ knotsBaromVisibWave heightAir tempDewpointWater temp
2018-Feb-19 21:05N 57°15' E 016°46'1 7.7
2018-Feb-19 20:58N 57°15' E 016°45'4 8.1
2018-Feb-19 20:28N 57°12' E 016°39'4 8.4
2018-Feb-19 19:57N 57°09' E 016°34'3 5.8
2018-Feb-19 19:29N 57°06' E 016°33'  
2018-Feb-16 13:34N 57°06' E 016°33'0 4.5
2018-Feb-16 13:30N 57°06' E 016°33'3 7.1
2018-Feb-16 13:00N 57°10' E 016°35'4 7.0
2018-Feb-16 12:30N 57°12' E 016°39'3 5.8
2018-Feb-16 12:00N 57°15' E 016°43'  
2018-Feb-12 19:05N 56°02' E 016°45'4 8.8
2018-Feb-12 18:40N 55°60' E 016°40'2 8.5
2018-Feb-12 18:28N 55°59' E 016°37'4 8.5
2018-Feb-12 18:00N 55°57' E 016°31'4 8.3
2018-Feb-12 17:30N 55°55' E 016°24'4 8.1
2018-Feb-12 17:01N 55°54' E 016°18'4 8.2
2018-Feb-12 16:31N 55°52' E 016°12'4 8.3
2018-Feb-12 16:00N 55°49' E 016°05'4 8.5
2018-Feb-12 15:30N 55°47' E 015°59'4 8.4
2018-Feb-12 15:00N 55°45' E 015°53'4 8.2
2018-Feb-12 14:30N 55°43' E 015°46'4 8.4
2018-Feb-12 14:01N 55°41' E 015°40'4 8.4
2018-Feb-12 13:30N 55°39' E 015°33'4 8.3
2018-Feb-12 13:00N 55°37' E 015°26'4 8.8
2018-Feb-12 12:30N 55°35' E 015°20'8 8.6
2018-Feb-12 11:32N 55°31' E 015°07'1 8.8
2018-Feb-12 11:26N 55°31' E 015°05'4 8.8
2018-Feb-12 11:00N 55°29' E 014°59'4 8.8
2018-Feb-12 10:30N 55°27' E 014°52'4 8.6
2018-Feb-12 10:01N 55°25' E 014°46'4 8.3
2018-Feb-12 09:29N 55°22' E 014°39'4 8.2
2018-Feb-12 09:00N 55°19' E 014°35'4 8.0
2018-Feb-12 08:30N 55°16' E 014°31'4 8.1
2018-Feb-12 07:59N 55°13' E 014°26'4 8.1
2018-Feb-12 07:31N 55°10' E 014°22'4 8.1
2018-Feb-12 07:00N 55°07' E 014°18'4 8.1
2018-Feb-12 06:27N 55°03' E 014°13'59 8.3
2018-Feb-11 23:21N 54°40' E 012°39'3 8.6
2018-Feb-11 23:00N 54°38' E 012°35'13 8.5
2018-Feb-11 21:28N 54°30' E 012°17'4 8.1
2018-Feb-11 21:00N 54°27' E 012°14'4 8.3
2018-Feb-11 20:30N 54°24' E 012°09'14 8.1
2018-Feb-11 18:45N 54°09' E 012°06'2 7.0
2018-Feb-11 18:30N 54°08' E 012°06'1 1.2
2018-Feb-11 17:56N 54°07' E 012°05'0 0.0
2018-Feb-11 15:14N 54°07' E 012°05'0 0.0
2018-Feb-11 14:56N 54°07' E 012°05'0 0.0
2018-Feb-11 14:29N 54°07' E 012°05'0 0.0
2018-Feb-11 13:53N 54°07' E 012°05'0 0.0
2018-Feb-11 13:20N 54°07' E 012°05'0 0.0
2018-Feb-11 12:56N 54°07' E 012°05'0 0.0
2018-Feb-11 12:23N 54°07' E 012°05'0 0.0
2018-Feb-11 10:23N 54°07' E 012°05'0 0.0
2018-Feb-11 09:59N 54°07' E 012°05'0 0.0
2018-Feb-11 09:29N 54°07' E 012°05'0 0.0
2018-Feb-11 06:29N 54°07' E 012°05'0 0.0
2018-Feb-11 03:41N 54°07' E 012°05'0 0.0
2018-Feb-11 03:20N 54°07' E 012°05'0 0.0
2018-Feb-11 01:44N 54°07' E 012°05'0 0.0
2018-Feb-11 01:26N 54°07' E 012°05'0 0.0
2018-Feb-11 00:59N 54°07' E 012°05'0 0.0
2018-Feb-10 21:35N 54°07' E 012°05'0 0.0
2018-Feb-10 21:26N 54°07' E 012°05'0 0.0
2018-Feb-10 20:56N 54°07' E 012°05'0 0.0
2018-Feb-10 19:08N 54°07' E 012°05'0 0.0
2018-Feb-10 18:59N 54°07' E 012°05'0 0.0
2018-Feb-10 18:29N 54°07' E 012°05'0 0.0
2018-Feb-10 17:29N 54°07' E 012°05'0 0.0
2018-Feb-10 16:29N 54°07' E 012°05'0 0.0
2018-Feb-10 13:47N 54°07' E 012°05'0 0.0
2018-Feb-10 13:20N 54°07' E 012°05'0 0.0
2018-Feb-10 13:00N 54°07' E 012°05'0 0.6
2018-Feb-10 12:30N 54°07' E 012°06'3 5.4
2018-Feb-10 12:00N 54°10' E 012°06'3 6.1
2018-Feb-10 11:30N 54°13' E 012°03'3 5.9
2018-Feb-10 11:00N 54°13' E 011°58'0 0.1
2018-Feb-10 10:30N 54°13' E 011°58'0 0.0
2018-Feb-10 10:00N 54°13' E 011°58'0 0.0
2018-Feb-10 08:09N 54°13' E 011°58'0 0.0
2018-Feb-10 08:00N 54°13' E 011°58'0 0.0
2018-Feb-10 07:30N 54°13' E 011°58'2 3.2
2018-Feb-10 07:00N 54°15' E 011°59'4 8.6
2018-Feb-10 06:30N 54°19' E 012°02'17 8.4
2018-Feb-10 04:26N 54°35' E 012°12'3 8.0
2018-Feb-10 04:00N 54°38' E 012°15'  
Track history (hours):
 
Tides and Currents Weather Stations Pressure Air Temp Water Temp Dewpoint Dewpoint Depression Visibility Wind Speed Wind Dir Waves Ship Positions

Omskiy-141

Last reported at 2018-Feb-19 21:05 UTC. Time now 2018-Feb-23 16:59 UTC.
Position N 57°15' E 016°46'.

Length 108 m; draft 2.6 m.

Type: Cargo ship. MMSI: 273310600.

Date/timePositionNaut miles runAvg speedWind from/ knotsBaromVisibWave heightAir tempDewpointWater temp
2018-Feb-19 21:05N 57°15' E 016°46'1 7.7
2018-Feb-19 20:58N 57°15' E 016°45'4 8.1
2018-Feb-19 20:28N 57°12' E 016°39'4 8.4
2018-Feb-19 19:57N 57°09' E 016°34'3 5.8
2018-Feb-19 19:29N 57°06' E 016°33'  
2018-Feb-16 13:34N 57°06' E 016°33'0 4.5
2018-Feb-16 13:30N 57°06' E 016°33'3 7.1
2018-Feb-16 13:00N 57°10' E 016°35'4 7.0
2018-Feb-16 12:30N 57°12' E 016°39'3 5.8
2018-Feb-16 12:00N 57°15' E 016°43'  
2018-Feb-12 19:05N 56°02' E 016°45'4 8.8
2018-Feb-12 18:40N 55°60' E 016°40'2 8.5
2018-Feb-12 18:28N 55°59' E 016°37'4 8.5
2018-Feb-12 18:00N 55°57' E 016°31'4 8.3
2018-Feb-12 17:30N 55°55' E 016°24'4 8.1
2018-Feb-12 17:01N 55°54' E 016°18'4 8.2
2018-Feb-12 16:31N 55°52' E 016°12'4 8.3
2018-Feb-12 16:00N 55°49' E 016°05'4 8.5
2018-Feb-12 15:30N 55°47' E 015°59'4 8.4
2018-Feb-12 15:00N 55°45' E 015°53'4 8.2
2018-Feb-12 14:30N 55°43' E 015°46'4 8.4
2018-Feb-12 14:01N 55°41' E 015°40'4 8.4
2018-Feb-12 13:30N 55°39' E 015°33'4 8.3
2018-Feb-12 13:00N 55°37' E 015°26'4 8.8
2018-Feb-12 12:30N 55°35' E 015°20'8 8.6
2018-Feb-12 11:32N 55°31' E 015°07'1 8.8
2018-Feb-12 11:26N 55°31' E 015°05'4 8.8
2018-Feb-12 11:00N 55°29' E 014°59'4 8.8
2018-Feb-12 10:30N 55°27' E 014°52'4 8.6
2018-Feb-12 10:01N 55°25' E 014°46'4 8.3
2018-Feb-12 09:29N 55°22' E 014°39'4 8.2
2018-Feb-12 09:00N 55°19' E 014°35'4 8.0
2018-Feb-12 08:30N 55°16' E 014°31'4 8.1
2018-Feb-12 07:59N 55°13' E 014°26'4 8.1
2018-Feb-12 07:31N 55°10' E 014°22'4 8.1
2018-Feb-12 07:00N 55°07' E 014°18'4 8.1
2018-Feb-12 06:27N 55°03' E 014°13'59 8.3
2018-Feb-11 23:21N 54°40' E 012°39'3 8.6
2018-Feb-11 23:00N 54°38' E 012°35'13 8.5
2018-Feb-11 21:28N 54°30' E 012°17'4 8.1
2018-Feb-11 21:00N 54°27' E 012°14'4 8.3
2018-Feb-11 20:30N 54°24' E 012°09'14 8.1
2018-Feb-11 18:45N 54°09' E 012°06'2 7.0
2018-Feb-11 18:30N 54°08' E 012°06'1 1.2
2018-Feb-11 17:56N 54°07' E 012°05'0 0.0
2018-Feb-11 15:14N 54°07' E 012°05'0 0.0
2018-Feb-11 14:56N 54°07' E 012°05'0 0.0
2018-Feb-11 14:29N 54°07' E 012°05'0 0.0
2018-Feb-11 13:53N 54°07' E 012°05'0 0.0
2018-Feb-11 13:20N 54°07' E 012°05'0 0.0
2018-Feb-11 12:56N 54°07' E 012°05'0 0.0
2018-Feb-11 12:23N 54°07' E 012°05'0 0.0
2018-Feb-11 10:23N 54°07' E 012°05'0 0.0
2018-Feb-11 09:59N 54°07' E 012°05'0 0.0
2018-Feb-11 09:29N 54°07' E 012°05'0 0.0
2018-Feb-11 06:29N 54°07' E 012°05'0 0.0
2018-Feb-11 03:41N 54°07' E 012°05'0 0.0
2018-Feb-11 03:20N 54°07' E 012°05'0 0.0
2018-Feb-11 01:44N 54°07' E 012°05'0 0.0
2018-Feb-11 01:26N 54°07' E 012°05'0 0.0
2018-Feb-11 00:59N 54°07' E 012°05'0 0.0
2018-Feb-10 21:35N 54°07' E 012°05'0 0.0
2018-Feb-10 21:26N 54°07' E 012°05'0 0.0
2018-Feb-10 20:56N 54°07' E 012°05'0 0.0
2018-Feb-10 19:08N 54°07' E 012°05'0 0.0
2018-Feb-10 18:59N 54°07' E 012°05'0 0.0
2018-Feb-10 18:29N 54°07' E 012°05'0 0.0
2018-Feb-10 17:29N 54°07' E 012°05'0 0.0
2018-Feb-10 16:29N 54°07' E 012°05'0 0.0
2018-Feb-10 13:47N 54°07' E 012°05'0 0.0
2018-Feb-10 13:20N 54°07' E 012°05'0 0.0
2018-Feb-10 13:00N 54°07' E 012°05'0 0.6
2018-Feb-10 12:30N 54°07' E 012°06'3 5.4
2018-Feb-10 12:00N 54°10' E 012°06'3 6.1
2018-Feb-10 11:30N 54°13' E 012°03'3 5.9
2018-Feb-10 11:00N 54°13' E 011°58'0 0.1
2018-Feb-10 10:30N 54°13' E 011°58'0 0.0
2018-Feb-10 10:00N 54°13' E 011°58'0 0.0
2018-Feb-10 08:09N 54°13' E 011°58'0 0.0
2018-Feb-10 08:00N 54°13' E 011°58'0 0.0
2018-Feb-10 07:30N 54°13' E 011°58'2 3.2
2018-Feb-10 07:00N 54°15' E 011°59'4 8.6
2018-Feb-10 06:30N 54°19' E 012°02'17 8.4
2018-Feb-10 04:26N 54°35' E 012°12'3 8.0
2018-Feb-10 04:00N 54°38' E 012°15'  

Dump ship's entire track history